Аэропорт: Кемерово. Кемерово

ICAO: UNEE

METAR:
2019-09-21 16:00:00
UNEE 211600Z 22003MPS CAVOK 10/01 Q1022 R23/CLRD60 NOSIG RMK QFE743
METAR:
2019-09-21 14:00:00
TAF UNEE 211400Z 2115/2215 20003MPS CAVOK TEMPO 2120/2202 3100 BR SCT011 TEMPO 2203/2212 11006G13MPS